createdAt,value
2016-11-19T00:00:30.337Z,0
2016-11-19T00:01:46.939Z,0
2016-11-19T00:03:01.557Z,0
2016-11-19T00:04:17.928Z,0
2016-11-19T00:05:46.486Z,0
2016-11-19T00:07:01.280Z,0
2016-11-19T00:08:17.226Z,0
2016-11-19T00:09:31.912Z,0
2016-11-19T00:10:46.794Z,0
2016-11-19T00:12:01.330Z,0
2016-11-19T00:13:16.893Z,0
2016-11-19T00:14:52.768Z,0
2016-11-19T00:16:07.319Z,0
2016-11-19T00:17:22.873Z,0
2016-11-19T00:18:37.401Z,0
2016-11-19T00:19:52.105Z,0
2016-11-19T00:21:06.906Z,0
2016-11-19T00:22:21.395Z,0
2016-11-19T00:23:36.339Z,0
2016-11-19T00:24:50.994Z,0
2016-11-19T00:26:06.137Z,0
2016-11-19T00:27:21.148Z,0
2016-11-19T00:31:14.960Z,0
2016-11-19T00:32:30.298Z,0
2016-11-19T00:33:46.714Z,0
2016-11-19T00:35:02.007Z,0
2016-11-19T00:36:19.014Z,0
2016-11-19T00:37:33.715Z,0
2016-11-19T00:39:18.067Z,0
2016-11-19T00:40:32.976Z,0
2016-11-19T00:41:47.333Z,0
2016-11-19T00:43:03.373Z,0
2016-11-19T00:44:18.616Z,0
2016-11-19T00:45:32.952Z,0
2016-11-19T00:46:47.456Z,0
2016-11-19T00:48:01.856Z,0
2016-11-19T00:49:31.225Z,0
2016-11-19T00:50:48.634Z,0
2016-11-19T00:52:03.958Z,0
2016-11-19T00:53:20.174Z,0
2016-11-19T00:54:34.872Z,0
2016-11-19T00:55:50.230Z,0
2016-11-19T00:57:05.880Z,0
2016-11-19T00:58:20.668Z,0
2016-11-19T00:59:35.558Z,0
2016-11-19T01:00:50.033Z,0
2016-11-19T01:02:04.947Z,0
2016-11-19T01:03:19.507Z,0
2016-11-19T01:04:34.771Z,0
2016-11-19T01:05:49.765Z,0
2016-11-19T01:07:04.352Z,0
2016-11-19T01:08:19.130Z,0
2016-11-19T01:09:33.746Z,0
2016-11-19T01:10:48.102Z,0
2016-11-19T01:12:02.735Z,0
2016-11-19T01:13:17.806Z,0
2016-11-19T01:14:32.482Z,0
2016-11-19T01:15:47.109Z,0
2016-11-19T01:17:03.762Z,0
2016-11-19T01:18:18.509Z,0
2016-11-19T01:19:33.266Z,0
2016-11-19T01:20:47.848Z,0
2016-11-19T01:22:02.413Z,0
2016-11-19T01:23:17.175Z,0
2016-11-19T01:24:32.129Z,0
2016-11-19T01:25:46.815Z,0
2016-11-19T01:27:01.809Z,0
2016-11-19T01:28:16.608Z,0
2016-11-19T01:29:31.416Z,0
2016-11-19T01:30:46.007Z,0
2016-11-19T01:32:00.523Z,0
2016-11-19T01:33:15.094Z,0
2016-11-19T01:34:29.957Z,0
2016-11-19T01:41:39.839Z,0
2016-11-19T01:42:54.189Z,0
2016-11-19T01:44:26.995Z,0
2016-11-19T01:45:41.570Z,0
2016-11-19T01:46:56.556Z,0
2016-11-19T01:48:10.824Z,0
2016-11-19T01:49:25.567Z,0
2016-11-19T01:50:40.972Z,0
2016-11-19T01:51:55.958Z,0
2016-11-19T01:56:23.408Z,0
2016-11-19T01:57:38.222Z,0
2016-11-19T01:59:12.983Z,0
2016-11-19T02:00:27.601Z,0
2016-11-19T02:01:42.103Z,0
2016-11-19T02:02:56.604Z,0
2016-11-19T02:04:11.003Z,0
2016-11-19T02:05:25.363Z,0
2016-11-19T02:06:40.101Z,0
2016-11-19T02:07:54.620Z,0
2016-11-19T02:09:09.450Z,0
2016-11-19T02:10:23.759Z,0
2016-11-19T02:11:38.274Z,0
2016-11-19T02:12:52.981Z,0
2016-11-19T02:14:07.507Z,0
2016-11-19T02:15:22.086Z,0
2016-11-19T02:16:36.800Z,0
2016-11-19T02:17:51.353Z,0
2016-11-19T02:19:06.150Z,0
2016-11-19T02:20:20.824Z,0
2016-11-19T02:21:35.363Z,0
2016-11-19T02:22:50.236Z,0
2016-11-19T02:24:04.986Z,0
2016-11-19T02:25:19.518Z,0
2016-11-19T02:26:34.150Z,0
2016-11-19T02:27:48.539Z,0
2016-11-19T02:29:03.131Z,0
2016-11-19T02:30:17.512Z,0
2016-11-19T02:31:32.181Z,0
2016-11-19T02:32:46.689Z,0
2016-11-19T02:34:01.223Z,0
2016-11-19T02:35:15.643Z,0
2016-11-19T02:36:30.097Z,0
2016-11-19T02:37:44.469Z,0
2016-11-19T02:38:59.132Z,0
2016-11-19T02:40:30.818Z,0
2016-11-19T02:41:45.467Z,0
2016-11-19T02:43:00.010Z,0
2016-11-19T02:44:15.307Z,0
2016-11-19T02:45:30.092Z,0
2016-11-19T02:46:44.493Z,0
2016-11-19T02:47:58.990Z,0
2016-11-19T02:49:13.482Z,0
2016-11-19T02:50:28.511Z,0
2016-11-19T02:51:43.280Z,0
2016-11-19T02:52:57.594Z,0
2016-11-19T02:54:12.108Z,0
2016-11-19T02:55:26.638Z,0
2016-11-19T02:56:41.168Z,0
2016-11-19T02:57:55.363Z,0
2016-11-19T02:59:10.253Z,0
2016-11-19T03:00:34.705Z,0
2016-11-19T03:01:49.656Z,0
2016-11-19T03:03:04.118Z,0
2016-11-19T03:04:18.892Z,0
2016-11-19T03:05:33.700Z,0
2016-11-19T03:06:49.130Z,0
2016-11-19T03:08:03.546Z,0
2016-11-19T03:09:18.639Z,0
2016-11-19T03:10:33.393Z,0
2016-11-19T03:11:48.442Z,0
2016-11-19T03:13:03.026Z,0
2016-11-19T03:14:17.879Z,0
2016-11-19T03:15:32.174Z,0
2016-11-19T03:16:46.910Z,0
2016-11-19T03:18:01.788Z,0
2016-11-19T03:19:16.620Z,0
2016-11-19T03:20:31.069Z,0
2016-11-19T03:21:45.815Z,0
2016-11-19T03:23:00.792Z,0
2016-11-19T03:24:15.683Z,0
2016-11-19T03:25:30.259Z,0
2016-11-19T03:26:45.104Z,0
2016-11-19T03:27:59.597Z,0
2016-11-19T03:29:14.104Z,0
2016-11-19T03:30:29.573Z,0
2016-11-19T03:31:44.252Z,0
2016-11-19T03:32:59.058Z,0
2016-11-19T03:34:13.940Z,0
2016-11-19T03:35:43.189Z,0
2016-11-19T03:36:58.119Z,0
2016-11-19T03:38:12.934Z,0
2016-11-19T03:39:28.155Z,0
2016-11-19T03:40:42.805Z,0
2016-11-19T03:41:57.599Z,0
2016-11-19T03:43:27.135Z,0
2016-11-19T03:44:42.085Z,0
2016-11-19T03:45:56.843Z,0
2016-11-19T03:47:11.560Z,0
2016-11-19T03:48:26.144Z,0
2016-11-19T03:49:41.105Z,0
2016-11-19T03:50:55.615Z,0
2016-11-19T03:52:10.398Z,0
2016-11-19T03:53:25.433Z,0
2016-11-19T03:54:40.075Z,0
2016-11-19T03:57:24.228Z,0
2016-11-19T03:58:41.819Z,0
2016-11-19T03:59:56.664Z,0
2016-11-19T04:01:11.734Z,0
2016-11-19T04:02:26.550Z,0
2016-11-19T04:03:40.972Z,0
2016-11-19T04:04:56.170Z,0
2016-11-19T04:06:11.001Z,0
2016-11-19T04:07:25.997Z,0
2016-11-19T04:08:41.631Z,0
2016-11-19T04:09:56.089Z,0
2016-11-19T04:11:11.212Z,0
2016-11-19T04:12:40.698Z,0
2016-11-19T04:13:55.509Z,0
2016-11-19T04:15:09.892Z,0
2016-11-19T04:16:24.395Z,0
2016-11-19T04:17:39.399Z,0
2016-11-19T04:18:53.711Z,0
2016-11-19T04:20:08.205Z,0
2016-11-19T04:21:23.207Z,0
2016-11-19T04:22:38.458Z,0
2016-11-19T04:23:53.627Z,0
2016-11-19T04:25:08.584Z,0
2016-11-19T04:26:22.900Z,0
2016-11-19T04:27:37.599Z,0
2016-11-19T04:28:52.525Z,0
2016-11-19T04:30:07.734Z,0
2016-11-19T04:31:22.522Z,0
2016-11-19T04:32:36.927Z,0
2016-11-19T04:33:51.428Z,0
2016-11-19T04:35:06.660Z,0
2016-11-19T04:36:21.450Z,0
2016-11-19T04:37:36.842Z,0
2016-11-19T04:38:51.283Z,0
2016-11-19T04:40:05.828Z,0
2016-11-19T04:41:20.734Z,0
2016-11-19T04:42:35.570Z,0
2016-11-19T04:43:50.364Z,0
2016-11-19T04:45:04.947Z,0
2016-11-19T04:46:19.590Z,0
2016-11-19T04:47:34.798Z,0
2016-11-19T04:48:50.155Z,0
2016-11-19T04:50:04.707Z,0
2016-11-19T04:51:19.431Z,0
2016-11-19T04:52:33.897Z,0
2016-11-19T04:53:48.935Z,0
2016-11-19T04:55:04.308Z,0
2016-11-19T04:56:33.471Z,0
2016-11-19T04:57:48.240Z,0
2016-11-19T04:59:02.837Z,0
2016-11-19T05:00:17.744Z,0
2016-11-19T05:01:32.543Z,0
2016-11-19T05:02:47.418Z,0
2016-11-19T05:04:01.909Z,0
2016-11-19T05:05:16.787Z,0
2016-11-19T05:06:32.649Z,0
2016-11-19T05:07:47.223Z,0
2016-11-19T05:09:02.200Z,0
2016-11-19T05:10:16.860Z,0
2016-11-19T05:11:31.446Z,0
2016-11-19T05:12:46.304Z,0
2016-11-19T05:14:00.793Z,0
2016-11-19T05:15:15.606Z,0
2016-11-19T05:16:32.536Z,0
2016-11-19T05:17:47.670Z,0
2016-11-19T05:19:02.238Z,0
2016-11-19T05:20:16.905Z,0
2016-11-19T05:21:45.590Z,0
2016-11-19T05:23:00.073Z,0
2016-11-19T05:24:14.287Z,0
2016-11-19T05:25:28.825Z,0
2016-11-19T05:26:43.632Z,0
2016-11-19T05:27:58.759Z,0
2016-11-19T05:29:13.520Z,0
2016-11-19T05:30:28.079Z,0
2016-11-19T05:31:42.501Z,0
2016-11-19T05:32:57.197Z,0
2016-11-19T05:34:12.007Z,0
2016-11-19T05:35:27.092Z,0
2016-11-19T05:36:41.295Z,0
2016-11-19T05:37:55.650Z,0
2016-11-19T05:39:10.204Z,0
2016-11-19T05:40:25.041Z,0
2016-11-19T05:41:40.148Z,0
2016-11-19T05:42:55.061Z,0
2016-11-19T05:44:09.820Z,0
2016-11-19T05:45:25.067Z,0
2016-11-19T05:46:39.997Z,0
2016-11-19T05:47:54.753Z,0
2016-11-19T05:49:09.504Z,0
2016-11-19T05:50:24.263Z,0
2016-11-19T05:51:38.687Z,0
2016-11-19T05:52:53.637Z,0
2016-11-19T05:54:08.298Z,0
2016-11-19T05:55:22.894Z,0
2016-11-19T05:56:37.537Z,0
2016-11-19T05:57:52.502Z,0
2016-11-19T05:59:07.498Z,0
2016-11-19T06:00:51.398Z,0
2016-11-19T06:02:06.432Z,0
2016-11-19T06:03:21.075Z,0
2016-11-19T06:04:36.132Z,0
2016-11-19T06:05:50.532Z,0
2016-11-19T06:07:05.085Z,0
2016-11-19T06:08:19.743Z,0
2016-11-19T06:09:34.894Z,0
2016-11-19T06:10:49.619Z,0
2016-11-19T06:12:04.451Z,0
2016-11-19T06:13:18.700Z,0
2016-11-19T06:14:33.081Z,0
2016-11-19T06:15:47.744Z,0
2016-11-19T06:17:03.218Z,0
2016-11-19T06:18:17.706Z,0
2016-11-19T06:19:32.139Z,0
2016-11-19T06:20:46.601Z,4
2016-11-19T06:22:01.384Z,4
2016-11-19T06:23:16.263Z,4
2016-11-19T06:24:31.259Z,4
2016-11-19T06:25:45.694Z,4
2016-11-19T06:27:00.096Z,4
2016-11-19T06:28:14.900Z,8
2016-11-19T06:29:29.841Z,8
2016-11-19T06:30:44.419Z,8
2016-11-19T06:31:58.739Z,12
2016-11-19T06:33:13.547Z,16
2016-11-19T06:34:30.783Z,16
2016-11-19T06:35:45.455Z,20
2016-11-19T06:36:59.995Z,20
2016-11-19T06:38:14.374Z,24
2016-11-19T06:39:28.994Z,28
2016-11-19T06:40:43.320Z,32
2016-11-19T06:41:58.517Z,40
2016-11-19T06:43:13.053Z,48
2016-11-19T06:44:27.806Z,52
2016-11-19T06:45:42.148Z,56
2016-11-19T06:46:56.589Z,60
2016-11-19T06:48:11.317Z,64
2016-11-19T06:49:26.109Z,72
2016-11-19T06:50:40.587Z,84
2016-11-19T06:51:55.726Z,96
2016-11-19T06:53:10.595Z,112
2016-11-19T06:54:25.164Z,120
2016-11-19T06:55:40.465Z,132
2016-11-19T06:56:54.952Z,140
2016-11-19T06:58:24.227Z,144
2016-11-19T06:59:39.234Z,156
2016-11-19T07:00:53.792Z,180
2016-11-19T07:02:08.717Z,208
2016-11-19T07:03:23.221Z,236
2016-11-19T07:04:37.523Z,256
2016-11-19T07:05:52.409Z,272
2016-11-19T07:10:48.977Z,320
2016-11-19T07:12:03.979Z,336
2016-11-19T07:13:18.728Z,360
2016-11-19T07:14:34.172Z,396
2016-11-19T07:15:49.005Z,452
2016-11-19T07:17:03.688Z,528
2016-11-19T07:18:18.824Z,608
2016-11-19T07:19:33.295Z,668
2016-11-19T07:20:47.952Z,760
2016-11-19T07:22:02.927Z,868
2016-11-19T07:23:18.138Z,952
2016-11-19T07:24:32.964Z,992
2016-11-19T07:25:47.693Z,952
2016-11-19T07:27:02.107Z,880
2016-11-19T07:28:16.949Z,824
2016-11-19T07:29:32.144Z,792
2016-11-19T07:30:47.418Z,780
2016-11-19T07:32:02.109Z,768
2016-11-19T07:33:31.760Z,776
2016-11-19T07:34:46.207Z,780
2016-11-19T07:36:01.371Z,780
2016-11-19T07:37:15.982Z,768
2016-11-19T07:38:31.105Z,776
2016-11-19T07:39:45.921Z,776
2016-11-19T07:41:01.051Z,800
2016-11-19T07:42:16.186Z,844
2016-11-19T07:43:30.660Z,908
2016-11-19T07:44:45.817Z,944
2016-11-19T07:46:15.584Z,912
2016-11-19T07:47:30.400Z,888
2016-11-19T07:48:45.298Z,868
2016-11-19T07:50:00.665Z,840
2016-11-19T07:51:16.255Z,824
2016-11-19T07:52:31.277Z,812
2016-11-19T07:53:46.306Z,752
2016-11-19T07:55:03.845Z,692
2016-11-19T07:56:19.265Z,656
2016-11-19T07:57:34.306Z,656
2016-11-19T07:58:49.632Z,660
2016-11-19T08:00:04.548Z,608
2016-11-19T08:01:19.513Z,564
2016-11-19T08:02:35.012Z,548
2016-11-19T08:03:50.090Z,528
2016-11-19T08:05:04.740Z,508
2016-11-19T08:06:19.861Z,492
2016-11-19T08:07:34.626Z,488
2016-11-19T08:08:49.398Z,492
2016-11-19T08:10:03.964Z,496
2016-11-19T08:11:18.930Z,504
2016-11-19T08:12:33.779Z,532
2016-11-19T08:13:48.652Z,572
2016-11-19T08:15:03.012Z,588
2016-11-19T08:16:18.115Z,616
2016-11-19T08:17:33.222Z,632
2016-11-19T08:18:48.423Z,636
2016-11-19T08:20:02.693Z,628
2016-11-19T08:21:17.282Z,632
2016-11-19T08:22:31.932Z,660
2016-11-19T08:23:46.625Z,700
2016-11-19T08:25:01.709Z,752
2016-11-19T08:26:16.689Z,808
2016-11-19T08:27:31.047Z,860
2016-11-19T08:28:45.996Z,900
2016-11-19T08:30:00.724Z,916
2016-11-19T08:31:15.449Z,928
2016-11-19T08:32:44.680Z,960
2016-11-19T08:33:59.190Z,992
2016-11-19T08:35:14.383Z,984
2016-11-19T08:36:29.477Z,936
2016-11-19T08:37:44.408Z,888
2016-11-19T08:38:58.905Z,856
2016-11-19T08:40:13.897Z,804
2016-11-19T08:41:28.440Z,756
2016-11-19T08:42:44.028Z,696
2016-11-19T08:43:58.639Z,660
2016-11-19T08:45:13.482Z,608
2016-11-19T08:46:28.343Z,596
2016-11-19T08:47:43.151Z,612
2016-11-19T08:48:57.888Z,644
2016-11-19T08:50:12.599Z,672
2016-11-19T08:51:27.307Z,656
2016-11-19T08:52:41.870Z,628
2016-11-19T08:53:56.265Z,632
2016-11-19T08:55:11.347Z,664
2016-11-19T08:56:25.785Z,680
2016-11-19T08:57:42.326Z,688
2016-11-19T08:58:57.214Z,688
2016-11-19T09:00:11.705Z,696
2016-11-19T09:01:27.077Z,708
2016-11-19T09:02:42.024Z,712
2016-11-19T09:03:56.607Z,728
2016-11-19T09:05:14.200Z,756
2016-11-19T09:06:46.201Z,808
2016-11-19T09:08:00.807Z,844
2016-11-19T09:09:15.258Z,876
2016-11-19T09:10:29.672Z,888
2016-11-19T09:11:44.568Z,916
2016-11-19T09:13:01.608Z,916
2016-11-19T09:14:16.254Z,900
2016-11-19T09:15:31.037Z,924
2016-11-19T09:16:45.515Z,960
2016-11-19T09:18:15.053Z,964
2016-11-19T09:19:30.177Z,904
2016-11-19T09:20:44.428Z,800
2016-11-19T09:21:59.672Z,736
2016-11-19T09:23:28.785Z,720
2016-11-19T09:24:43.576Z,752
2016-11-19T09:25:58.017Z,800
2016-11-19T09:27:13.161Z,788
2016-11-19T09:28:27.937Z,780
2016-11-19T09:29:43.240Z,732
2016-11-19T09:30:58.347Z,816
2016-11-19T09:32:12.783Z,892
2016-11-19T09:33:27.214Z,976
2016-11-19T09:36:13.118Z,1064
2016-11-19T09:37:28.772Z,1048
2016-11-19T09:38:43.454Z,1016
2016-11-19T09:39:58.326Z,900
2016-11-19T09:41:13.870Z,800
2016-11-19T09:42:31.080Z,688
2016-11-19T09:44:01.613Z,716
2016-11-19T09:45:36.187Z,764
2016-11-19T09:46:56.455Z,788
2016-11-19T09:48:27.619Z,756
2016-11-19T09:49:42.474Z,672
2016-11-19T09:50:56.785Z,656
2016-11-19T09:52:11.378Z,712
2016-11-19T09:53:25.861Z,728
2016-11-19T09:54:41.689Z,836
2016-11-19T09:55:56.710Z,812
2016-11-19T09:57:12.293Z,816
2016-11-19T09:58:27.015Z,648
2016-11-19T09:59:41.389Z,704
2016-11-19T10:00:56.786Z,672
2016-11-19T10:03:43.041Z,1008
2016-11-19T10:04:57.852Z,1020
2016-11-19T10:06:12.536Z,992
2016-11-19T10:07:27.110Z,956
2016-11-19T10:08:42.233Z,1036
2016-11-19T10:09:57.562Z,1100
2016-11-19T10:11:12.114Z,1192
2016-11-19T10:12:27.264Z,1212
2016-11-19T10:13:56.947Z,1292
2016-11-19T10:15:11.806Z,1572
2016-11-19T10:16:26.350Z,1816
2016-11-19T10:17:41.359Z,1916
2016-11-19T10:18:56.219Z,1780
2016-11-19T10:20:12.029Z,1800
2016-11-19T10:21:41.373Z,1852
2016-11-19T10:22:56.716Z,1488
2016-11-19T10:24:11.882Z,1368
2016-11-19T10:25:26.121Z,1160
2016-11-19T10:26:40.535Z,744
2016-11-19T10:27:55.269Z,752
2016-11-19T10:29:10.636Z,960
2016-11-19T10:33:23.072Z,704
2016-11-19T10:34:40.404Z,540
2016-11-19T10:36:09.432Z,452
2016-11-19T10:37:24.253Z,380
2016-11-19T10:38:38.649Z,404
2016-11-19T10:39:53.944Z,912
2016-11-19T10:41:37.862Z,1560
2016-11-19T10:42:52.456Z,2180
2016-11-19T10:44:07.217Z,2572
2016-11-19T10:45:22.575Z,2688
2016-11-19T10:46:37.076Z,2656
2016-11-19T10:47:51.713Z,2588
2016-11-19T10:49:06.735Z,2636
2016-11-19T10:50:21.585Z,2748
2016-11-19T10:51:36.858Z,2876
2016-11-19T10:52:51.383Z,3052
2016-11-19T10:54:05.810Z,3208
2016-11-19T10:55:20.465Z,3224
2016-11-19T10:56:35.296Z,3084
2016-11-19T10:57:50.511Z,2956
2016-11-19T10:59:04.939Z,2800
2016-11-19T11:00:20.721Z,2724
2016-11-19T11:01:35.498Z,2660
2016-11-19T11:02:52.223Z,2616
2016-11-19T11:04:08.735Z,2564
2016-11-19T11:05:25.510Z,2072
2016-11-19T11:06:41.462Z,2244
2016-11-19T11:07:57.776Z,1912
2016-11-19T11:09:14.615Z,1808
2016-11-19T11:10:31.091Z,1756
2016-11-19T11:11:47.334Z,1844
2016-11-19T11:13:03.109Z,1920
2016-11-19T11:14:19.150Z,2048
2016-11-19T11:15:35.990Z,1964
2016-11-19T11:16:52.704Z,1944
2016-11-19T11:18:08.712Z,1976
2016-11-19T11:19:24.617Z,1820
2016-11-19T11:20:40.789Z,1704
2016-11-19T11:21:56.570Z,1840
2016-11-19T11:23:12.635Z,1976
2016-11-19T11:24:28.696Z,2020
2016-11-19T11:25:44.419Z,1948
2016-11-19T11:27:00.535Z,2128
2016-11-19T11:28:16.332Z,1956
2016-11-19T11:29:32.194Z,2276
2016-11-19T11:30:48.218Z,2616
2016-11-19T11:32:04.090Z,2828
2016-11-19T11:33:20.063Z,2708
2016-11-19T11:34:36.292Z,2804
2016-11-19T11:35:52.536Z,2724
2016-11-19T11:37:08.506Z,2452
2016-11-19T11:38:24.477Z,2448
2016-11-19T11:39:40.735Z,1780
2016-11-19T11:40:56.331Z,2068
2016-11-19T11:42:12.207Z,2152
2016-11-19T11:43:28.057Z,2368
2016-11-19T11:44:44.685Z,2832
2016-11-19T11:46:01.733Z,2872
2016-11-19T11:47:19.261Z,2432
2016-11-19T11:48:34.988Z,2520
2016-11-19T11:49:49.269Z,2936
2016-11-19T11:51:04.406Z,2768
2016-11-19T11:52:33.048Z,2704
2016-11-19T11:53:50.208Z,2884
2016-11-19T11:55:05.277Z,2752
2016-11-19T11:56:19.973Z,2712
2016-11-19T11:57:34.805Z,2736
2016-11-19T11:58:49.758Z,2896
2016-11-19T12:00:05.700Z,2536
2016-11-19T12:01:21.596Z,2676
2016-11-19T12:02:36.314Z,2868
2016-11-19T12:03:50.832Z,2584
2016-11-19T12:05:07.274Z,2464
2016-11-19T12:06:22.403Z,2036
2016-11-19T12:07:37.066Z,2192
2016-11-19T12:08:51.958Z,1964
2016-11-19T12:10:06.429Z,1748
2016-11-19T12:11:35.783Z,2000
2016-11-19T12:12:50.702Z,2972
2016-11-19T12:14:05.315Z,4076
2016-11-19T12:15:20.389Z,4044
2016-11-19T12:16:35.044Z,3144
2016-11-19T12:17:49.883Z,2488
2016-11-19T12:19:04.120Z,3040
2016-11-19T12:20:19.164Z,2676
2016-11-19T12:21:34.039Z,2980
2016-11-19T12:22:48.843Z,2212
2016-11-19T12:24:03.443Z,1864
2016-11-19T12:25:33.208Z,1760
2016-11-19T12:26:50.623Z,1556
2016-11-19T12:28:05.233Z,1676
2016-11-19T12:29:19.782Z,1532
2016-11-19T12:30:34.423Z,1536
2016-11-19T12:31:49.050Z,1524
2016-11-19T12:33:04.115Z,1340
2016-11-19T12:34:18.908Z,1552
2016-11-19T12:35:33.611Z,1496
2016-11-19T12:36:47.870Z,1492
2016-11-19T12:38:02.451Z,1276
2016-11-19T12:39:17.901Z,1772
2016-11-19T12:40:32.823Z,2588
2016-11-19T12:41:47.164Z,2636
2016-11-19T12:43:01.504Z,2332
2016-11-19T12:44:16.167Z,2496
2016-11-19T12:45:31.657Z,2820
2016-11-19T12:46:46.196Z,2996
2016-11-19T12:48:01.223Z,2528
2016-11-19T12:49:16.262Z,2544
2016-11-19T12:50:31.060Z,2388
2016-11-19T12:51:46.453Z,2180
2016-11-19T12:53:01.741Z,2224
2016-11-19T12:54:17.021Z,2388
2016-11-19T12:55:31.514Z,2560
2016-11-19T12:56:45.975Z,2556
2016-11-19T12:58:01.127Z,2512
2016-11-19T12:59:15.568Z,2340
2016-11-19T13:00:30.395Z,2308
2016-11-19T13:01:44.932Z,2048
2016-11-19T13:04:14.524Z,2056
2016-11-19T13:05:28.986Z,1972
2016-11-19T13:06:43.619Z,1888
2016-11-19T13:07:58.257Z,1900
2016-11-19T13:09:13.205Z,1996
2016-11-19T13:10:27.584Z,2196
2016-11-19T13:11:42.398Z,1936
2016-11-19T13:12:59.720Z,1700
2016-11-19T13:14:14.206Z,2016
2016-11-19T13:15:29.268Z,1696
2016-11-19T13:16:44.916Z,1616
2016-11-19T13:17:59.519Z,1844
2016-11-19T13:19:40.938Z,1740
2016-11-19T13:20:56.027Z,2088
2016-11-19T13:22:10.777Z,2340
2016-11-19T13:23:40.298Z,2236
2016-11-19T13:24:56.012Z,2060
2016-11-19T13:26:10.505Z,2552
2016-11-19T13:30:25.932Z,2440
2016-11-19T13:31:40.858Z,2124
2016-11-19T13:32:55.399Z,2096
2016-11-19T13:34:11.136Z,2316
2016-11-19T13:35:27.246Z,1916
2016-11-19T13:36:43.531Z,2176
2016-11-19T13:38:00.061Z,2456
2016-11-19T13:39:17.252Z,1972
2016-11-19T13:40:33.446Z,1568
2016-11-19T13:41:49.478Z,1524
2016-11-19T13:43:06.710Z,1684
2016-11-19T13:44:22.066Z,1368
2016-11-19T13:45:37.341Z,1252
2016-11-19T13:47:15.548Z,1264
2016-11-19T13:48:30.798Z,1220
2016-11-19T13:49:45.682Z,1288
2016-11-19T13:51:00.245Z,1264
2016-11-19T13:52:15.701Z,1248
2016-11-19T13:53:31.743Z,1264
2016-11-19T13:54:47.337Z,1180
2016-11-19T13:56:02.014Z,1140
2016-11-19T13:57:17.326Z,836
2016-11-19T13:58:37.299Z,1088
2016-11-19T13:59:53.158Z,976
2016-11-19T14:01:15.338Z,812
2016-11-19T14:02:32.974Z,744
2016-11-19T14:03:47.967Z,856
2016-11-19T14:05:02.534Z,1056
2016-11-19T14:06:17.608Z,1116
2016-11-19T14:07:32.555Z,932
2016-11-19T14:08:47.370Z,860
2016-11-19T14:10:02.050Z,836
2016-11-19T14:12:49.648Z,932
2016-11-19T14:14:21.481Z,1092
2016-11-19T14:15:38.138Z,948
2016-11-19T14:16:54.749Z,1040
2016-11-19T14:18:12.679Z,1072
2016-11-19T14:19:29.233Z,1044
2016-11-19T14:20:45.088Z,1020
2016-11-19T14:22:00.656Z,1252
2016-11-19T14:23:15.800Z,1208
2016-11-19T14:24:30.755Z,1220
2016-11-19T14:25:46.937Z,1308
2016-11-19T14:27:01.986Z,1288
2016-11-19T14:28:49.617Z,1244
2016-11-19T14:30:05.489Z,1168
2016-11-19T14:31:20.691Z,1212
2016-11-19T14:33:37.274Z,1552
2016-11-19T14:34:52.493Z,1320
2016-11-19T14:36:10.582Z,1180
2016-11-19T14:40:08.213Z,952
2016-11-19T14:41:25.447Z,936
2016-11-19T14:42:41.610Z,868
2016-11-19T14:43:57.024Z,808
2016-11-19T14:45:12.148Z,776
2016-11-19T14:46:27.180Z,756
2016-11-19T14:47:42.375Z,776
2016-11-19T14:48:57.492Z,784
2016-11-19T14:50:12.156Z,736
2016-11-19T14:51:28.121Z,648
2016-11-19T14:52:43.806Z,560
2016-11-19T14:53:59.627Z,568
2016-11-19T14:55:14.339Z,544
2016-11-19T14:56:29.017Z,520
2016-11-19T14:57:43.189Z,520
2016-11-19T14:58:58.587Z,528
2016-11-19T15:00:13.680Z,512
2016-11-19T15:01:29.960Z,480
2016-11-19T15:02:45.481Z,400
2016-11-19T15:04:00.316Z,360
2016-11-19T15:05:18.768Z,372
2016-11-19T15:06:33.812Z,340
2016-11-19T15:07:48.893Z,336
2016-11-19T15:09:03.999Z,332
2016-11-19T15:10:19.649Z,408
2016-11-19T15:11:34.829Z,408
2016-11-19T15:12:51.063Z,388
2016-11-19T15:14:07.107Z,352
2016-11-19T15:15:22.233Z,304
2016-11-19T15:16:38.000Z,260
2016-11-19T15:17:52.420Z,244
2016-11-19T15:19:06.736Z,228
2016-11-19T15:20:21.330Z,240
2016-11-19T15:21:37.068Z,224
2016-11-19T15:22:52.779Z,196
2016-11-19T15:24:08.249Z,180
2016-11-19T15:25:23.571Z,192
2016-11-19T15:26:38.216Z,188
2016-11-19T15:27:52.928Z,188
2016-11-19T15:29:07.799Z,180
2016-11-19T15:30:22.855Z,164
2016-11-19T15:31:37.035Z,152
2016-11-19T15:32:51.600Z,144
2016-11-19T15:34:06.032Z,136
2016-11-19T15:35:20.544Z,120
2016-11-19T15:36:34.999Z,104
2016-11-19T15:37:49.789Z,96
2016-11-19T15:39:04.368Z,80
2016-11-19T15:40:18.992Z,72
2016-11-19T15:41:33.837Z,60
2016-11-19T15:42:49.004Z,48
2016-11-19T15:44:04.542Z,40
2016-11-19T15:45:19.893Z,32
2016-11-19T15:46:35.295Z,28
2016-11-19T15:47:49.654Z,24
2016-11-19T15:49:05.404Z,20
2016-11-19T15:50:19.746Z,16
2016-11-19T15:51:34.839Z,12
2016-11-19T15:52:49.418Z,8
2016-11-19T15:54:03.997Z,8
2016-11-19T15:55:21.993Z,8
2016-11-19T15:56:36.687Z,4
2016-11-19T15:57:51.901Z,4
2016-11-19T15:59:06.178Z,4
2016-11-19T16:00:20.827Z,4
2016-11-19T16:01:36.701Z,0
2016-11-19T16:03:06.986Z,0
2016-11-19T16:04:21.714Z,0
2016-11-19T16:05:36.606Z,0
2016-11-19T16:06:51.528Z,0
2016-11-19T16:08:06.020Z,0
2016-11-19T16:09:20.725Z,0
2016-11-19T16:10:35.037Z,0
2016-11-19T16:11:49.587Z,0
2016-11-19T16:13:47.937Z,0
2016-11-19T16:15:02.537Z,0
2016-11-19T16:16:17.418Z,0
2016-11-19T16:17:32.418Z,0
2016-11-19T16:18:47.182Z,0
2016-11-19T16:20:02.125Z,0
2016-11-19T16:21:16.571Z,0
2016-11-19T16:22:31.262Z,0
2016-11-19T16:23:45.746Z,0
2016-11-19T16:25:00.348Z,0
2016-11-19T16:26:14.819Z,0
2016-11-19T16:27:29.531Z,0
2016-11-19T16:28:44.754Z,0
2016-11-19T16:29:59.193Z,0
2016-11-19T16:31:14.097Z,0
2016-11-19T16:32:29.276Z,0
2016-11-19T16:33:44.894Z,0
2016-11-19T16:34:58.980Z,0
2016-11-19T16:36:14.047Z,0
2016-11-19T16:37:28.959Z,0
2016-11-19T16:38:43.355Z,0
2016-11-19T16:39:57.914Z,0
2016-11-19T16:41:12.903Z,0
2016-11-19T16:42:27.269Z,0
2016-11-19T16:43:42.491Z,0
2016-11-19T16:44:57.562Z,0
2016-11-19T16:46:12.141Z,0
2016-11-19T16:47:41.606Z,0
2016-11-19T16:48:55.994Z,0
2016-11-19T16:50:10.105Z,0
2016-11-19T16:51:25.311Z,0
2016-11-19T16:52:39.916Z,0
2016-11-19T16:53:54.658Z,0
2016-11-19T16:55:09.327Z,0
2016-11-19T16:56:23.840Z,0
2016-11-19T16:57:38.964Z,0
2016-11-19T16:58:53.385Z,0
2016-11-19T17:00:08.487Z,0
2016-11-19T17:01:22.913Z,0
2016-11-19T17:02:37.146Z,0
2016-11-19T17:03:51.665Z,0
2016-11-19T17:05:06.344Z,0
2016-11-19T17:06:20.694Z,0
2016-11-19T17:07:35.351Z,0
2016-11-19T17:08:49.803Z,0
2016-11-19T17:10:04.348Z,0
2016-11-19T17:11:18.885Z,0
2016-11-19T17:12:33.788Z,0
2016-11-19T17:13:50.611Z,0
2016-11-19T17:15:05.251Z,0
2016-11-19T17:16:20.031Z,0
2016-11-19T17:17:34.804Z,0
2016-11-19T17:18:49.465Z,0
2016-11-19T17:20:03.829Z,0
2016-11-19T17:21:18.199Z,0
2016-11-19T17:22:32.871Z,0
2016-11-19T17:23:47.771Z,0
2016-11-19T17:25:02.481Z,0
2016-11-19T17:26:17.165Z,0
2016-11-19T17:27:31.628Z,0
2016-11-19T17:28:46.526Z,0
2016-11-19T17:30:00.918Z,0
2016-11-19T17:31:15.644Z,0
2016-11-19T17:32:30.533Z,0
2016-11-19T17:33:45.064Z,0
2016-11-19T17:34:59.463Z,0
2016-11-19T17:36:13.825Z,0
2016-11-19T17:37:28.308Z,0
2016-11-19T17:38:43.529Z,0
2016-11-19T17:39:58.253Z,0
2016-11-19T17:41:14.237Z,0
2016-11-19T17:42:28.566Z,0
2016-11-19T17:43:43.273Z,0
2016-11-19T17:44:58.027Z,0
2016-11-19T17:46:12.921Z,0
2016-11-19T17:47:27.931Z,0
2016-11-19T17:48:57.406Z,0
2016-11-19T17:50:12.161Z,0
2016-11-19T17:51:27.234Z,0
2016-11-19T17:52:42.067Z,0
2016-11-19T17:53:56.458Z,0
2016-11-19T17:55:10.965Z,0
2016-11-19T17:56:25.898Z,0
2016-11-19T17:57:40.471Z,0
2016-11-19T17:58:54.995Z,0
2016-11-19T18:00:09.740Z,0
2016-11-19T18:01:25.021Z,0
2016-11-19T18:02:39.448Z,0
2016-11-19T18:03:54.310Z,0
2016-11-19T18:05:09.192Z,0
2016-11-19T18:06:24.322Z,0
2016-11-19T18:07:39.346Z,0
2016-11-19T18:08:54.422Z,0
2016-11-19T18:10:09.730Z,0
2016-11-19T18:11:39.440Z,0
2016-11-19T18:12:53.791Z,0
2016-11-19T18:14:08.429Z,0
2016-11-19T18:15:22.979Z,0
2016-11-19T18:16:37.293Z,0
2016-11-19T18:17:52.462Z,0
2016-11-19T18:19:07.312Z,0
2016-11-19T18:20:37.203Z,0
2016-11-19T18:21:52.026Z,0
2016-11-19T18:23:06.754Z,0
2016-11-19T18:24:21.240Z,0
2016-11-19T18:25:36.011Z,0
2016-11-19T18:26:50.260Z,0